createdAt,value
2022-12-06T00:01:16.974Z,7.8
2022-12-06T00:02:19.677Z,9
2022-12-06T00:06:23.746Z,8.5
2022-12-06T00:08:25.779Z,7.3
2022-12-06T00:10:31.031Z,7.3
2022-12-06T00:12:33.060Z,6.5
2022-12-06T00:14:35.117Z,6.8
2022-12-06T00:16:37.276Z,7.3
2022-12-06T00:18:39.209Z,5.6
2022-12-06T00:20:41.237Z,8.1
2022-12-06T00:22:43.295Z,6.4
2022-12-06T00:24:48.569Z,8.1
2022-12-06T00:26:50.619Z,6.2
2022-12-06T00:28:52.644Z,7.7
2022-12-06T00:30:54.686Z,6.8
2022-12-06T00:32:56.747Z,6.9
2022-12-06T00:34:58.759Z,5.9
2022-12-06T00:37:00.818Z,6.8
2022-12-06T00:39:06.098Z,7.5
2022-12-06T00:41:08.129Z,6.7
2022-12-06T00:43:10.188Z,7.3
2022-12-06T00:45:12.232Z,7.4
2022-12-06T00:47:14.268Z,7.1
2022-12-06T00:49:16.296Z,7.7
2022-12-06T00:51:18.333Z,8
2022-12-06T00:53:23.632Z,7.8
2022-12-06T00:55:25.676Z,7.8
2022-12-06T00:57:27.701Z,7.4
2022-12-06T00:58:30.351Z,7
2022-12-06T01:00:32.367Z,6.9
2022-12-06T01:02:34.423Z,7.4
2022-12-06T01:04:36.472Z,6.8
2022-12-06T01:08:45.309Z,7
2022-12-06T01:10:47.360Z,7.8
2022-12-06T01:12:49.385Z,7.5
2022-12-06T01:16:53.507Z,7.5
2022-12-06T01:18:55.493Z,7.9
2022-12-06T01:21:00.797Z,8.1
2022-12-06T01:23:02.827Z,8.5
2022-12-06T01:25:04.860Z,6.8
2022-12-06T01:27:06.915Z,7.7
2022-12-06T01:31:11.051Z,7.7
2022-12-06T01:35:18.308Z,10.1
2022-12-06T01:39:22.382Z,8.5
2022-12-06T01:43:26.464Z,7.7
2022-12-06T01:45:28.510Z,8.7
2022-12-06T01:47:30.546Z,7.5
2022-12-06T01:49:35.840Z,8.4
2022-12-06T01:54:42.555Z,8.2
2022-12-06T01:56:44.607Z,7.1
2022-12-06T01:58:46.626Z,6.5
2022-12-06T02:00:48.693Z,8.9
2022-12-06T02:02:54.022Z,7.2
2022-12-06T02:04:56.014Z,7.6
2022-12-06T02:06:58.053Z,7.4
2022-12-06T02:09:00.101Z,7.8
2022-12-06T02:11:02.161Z,7.7
2022-12-06T02:13:04.182Z,7
2022-12-06T02:15:06.216Z,8.3
2022-12-06T02:17:11.564Z,8.3
2022-12-06T02:19:13.564Z,7.5
2022-12-06T02:23:17.610Z,8.6
2022-12-06T02:25:19.655Z,7.8
2022-12-06T02:27:21.706Z,6.6
2022-12-06T02:29:23.764Z,9.3
2022-12-06T02:31:29.155Z,7.2
2022-12-06T02:33:31.088Z,7.7
2022-12-06T02:35:33.128Z,10.4
2022-12-06T02:37:35.153Z,7.2
2022-12-06T02:39:37.194Z,7
2022-12-06T02:41:39.226Z,7.1
2022-12-06T02:43:41.278Z,6.7
2022-12-06T02:45:46.641Z,7.7
2022-12-06T02:47:48.584Z,8.6
2022-12-06T02:49:50.626Z,7.1
2022-12-06T03:06:36.991Z,7.4
2022-12-06T03:08:39.029Z,8.5
2022-12-06T03:10:41.107Z,6.1
2022-12-06T03:12:46.351Z,7.7
2022-12-06T03:14:48.382Z,7.1
2022-12-06T03:16:50.414Z,6.2
2022-12-06T03:18:52.460Z,6.2
2022-12-06T03:20:54.507Z,6.3
2022-12-06T03:22:56.547Z,6.5
2022-12-06T03:31:07.976Z,6.4
2022-12-06T03:33:09.969Z,5.2
2022-12-06T03:35:12.012Z,6.2
2022-12-06T03:41:21.365Z,6.1
2022-12-06T03:45:25.523Z,6.3
2022-12-06T03:46:28.409Z,6.2
2022-12-06T03:48:30.120Z,6.8
2022-12-06T03:50:32.168Z,7
2022-12-06T03:54:39.459Z,7
2022-12-06T03:56:41.519Z,6.1
2022-12-06T03:58:43.568Z,5.4
2022-12-06T04:00:45.603Z,5.4
2022-12-06T04:02:47.622Z,5.3
2022-12-06T04:04:49.668Z,4.8
2022-12-06T04:06:51.700Z,5.6
2022-12-06T04:08:56.956Z,4.4
2022-12-06T04:10:59.034Z,4.3
2022-12-06T04:17:05.123Z,5.6
2022-12-06T04:19:07.133Z,4.5
2022-12-06T04:21:09.175Z,5.2
2022-12-06T04:25:16.456Z,5.2
2022-12-06T04:27:18.498Z,4.9
2022-12-06T04:29:20.540Z,5.2
2022-12-06T04:31:22.769Z,5.1
2022-12-06T04:35:26.609Z,3.8
2022-12-06T04:37:31.904Z,4.1
2022-12-06T04:42:38.571Z,4.4
2022-12-06T04:44:40.639Z,5
2022-12-06T04:46:42.732Z,4
2022-12-06T04:48:44.685Z,4.2
2022-12-06T04:50:49.937Z,4
2022-12-06T04:52:51.962Z,4.2
2022-12-06T04:54:53.986Z,4.9
2022-12-06T04:56:56.018Z,5.1
2022-12-06T04:58:58.051Z,4.7
2022-12-06T05:01:00.221Z,4.7
2022-12-06T05:03:02.108Z,5.3
2022-12-06T05:05:07.365Z,4.1
2022-12-06T05:07:09.420Z,5.9
2022-12-06T05:11:13.449Z,4.3
2022-12-06T05:13:15.496Z,4.9
2022-12-06T05:15:17.521Z,5
2022-12-06T05:17:19.552Z,4.4
2022-12-06T05:21:26.883Z,4
2022-12-06T05:23:28.855Z,5.4
2022-12-06T05:25:30.908Z,5
2022-12-06T05:31:37.063Z,4.4
2022-12-06T05:33:42.242Z,5.7
2022-12-06T05:35:44.278Z,4.2
2022-12-06T05:37:46.286Z,4.8
2022-12-06T05:38:51.557Z,4.8
2022-12-06T05:40:50.951Z,4.5
2022-12-06T05:42:52.969Z,4
2022-12-06T05:47:00.322Z,5.2
2022-12-06T05:53:06.375Z,5.9
2022-12-06T06:01:17.729Z,4.5
2022-12-06T06:11:27.850Z,4.4
2022-12-06T06:13:29.876Z,3.6
2022-12-06T06:15:35.143Z,4.4
2022-12-06T06:17:37.204Z,4.4
2022-12-06T06:19:39.214Z,3.9
2022-12-06T06:21:41.243Z,4.9
2022-12-06T06:23:43.246Z,3.3
2022-12-06T06:25:45.271Z,5.5
2022-12-06T06:27:47.304Z,4.7
2022-12-06T06:29:52.551Z,3.5
2022-12-06T06:33:56.603Z,4
2022-12-06T06:38:27.458Z,3.6
2022-12-06T06:40:29.508Z,3.4
2022-12-06T06:44:36.794Z,3.9
2022-12-06T06:46:38.841Z,3.5
2022-12-06T06:48:40.850Z,4.7
2022-12-06T06:50:42.885Z,4.3
2022-12-06T06:52:44.917Z,4.8
2022-12-06T06:54:46.922Z,4.1
2022-12-06T06:56:53.738Z,4.3
2022-12-06T07:00:57.856Z,4.7
2022-12-06T07:02:59.898Z,3.7
2022-12-06T07:17:17.101Z,3.4
2022-12-06T07:19:19.089Z,5.5
2022-12-06T07:21:21.113Z,4.2
2022-12-06T07:23:23.142Z,4.7
2022-12-06T07:25:28.397Z,3.5
2022-12-06T07:27:30.421Z,3.8
2022-12-06T07:29:32.436Z,4.3
2022-12-06T07:30:35.169Z,3.6
2022-12-06T07:32:37.116Z,4.8
2022-12-06T07:34:39.104Z,4.5
2022-12-06T07:36:41.154Z,4.6
2022-12-06T07:38:46.412Z,3.3
2022-12-06T07:41:04.185Z,4.6
2022-12-06T07:42:50.466Z,4.3
2022-12-06T07:44:55.577Z,4.2
2022-12-06T07:46:54.498Z,3.7
2022-12-06T07:48:56.529Z,3.5
2022-12-06T07:50:58.538Z,4.5
2022-12-06T07:57:07.814Z,4.4
2022-12-06T07:59:09.826Z,4
2022-12-06T08:01:11.857Z,5
2022-12-06T08:03:13.840Z,4.6
2022-12-06T08:05:15.877Z,5.2
2022-12-06T08:07:21.148Z,3.5
2022-12-06T08:09:23.139Z,4.6
2022-12-06T08:11:25.140Z,4.4
2022-12-06T08:13:27.136Z,3.5
2022-12-06T08:15:29.140Z,3.8
2022-12-06T08:17:31.155Z,3.8
2022-12-06T08:19:33.142Z,4.5
2022-12-06T08:21:38.392Z,4.2
2022-12-06T08:23:40.369Z,4.3
2022-12-06T08:25:42.392Z,4.4
2022-12-06T08:32:50.990Z,5.2
2022-12-06T08:39:00.245Z,4.8
2022-12-06T08:41:02.208Z,5.4
2022-12-06T08:47:08.178Z,5.6
2022-12-06T08:51:15.409Z,5.5
2022-12-06T08:53:17.384Z,4.9
2022-12-06T08:55:19.378Z,5.3
2022-12-06T08:57:21.373Z,5.7
2022-12-06T08:59:23.337Z,5.5
2022-12-06T09:01:25.455Z,5
2022-12-06T09:03:30.568Z,4.9
2022-12-06T09:05:32.559Z,5.2
2022-12-06T09:07:34.575Z,5.8
2022-12-06T09:09:36.552Z,6.2
2022-12-06T09:11:38.536Z,4.3
2022-12-06T09:13:40.556Z,4.2
2022-12-06T09:15:42.592Z,4.4
2022-12-06T09:17:47.748Z,5.2
2022-12-06T09:19:49.774Z,4.2
2022-12-06T09:21:51.769Z,4.5
2022-12-06T09:22:54.366Z,4.3
2022-12-06T09:24:56.381Z,5.1
2022-12-06T09:26:58.370Z,3.9
2022-12-06T09:29:00.383Z,5
2022-12-06T09:31:05.677Z,4.9
2022-12-06T09:33:07.670Z,4.4
2022-12-06T09:35:13.880Z,3.2
2022-12-06T09:37:11.679Z,6.8
2022-12-06T09:39:13.689Z,2.7
2022-12-06T09:41:15.720Z,3.1
2022-12-06T09:43:17.741Z,3.8
2022-12-06T09:45:22.986Z,3.4
2022-12-06T09:47:25.022Z,2.2
2022-12-06T09:49:27.058Z,3.1
2022-12-06T09:51:29.092Z,2.8
2022-12-06T09:53:31.098Z,2.5
2022-12-06T09:55:33.105Z,2
2022-12-06T09:57:35.340Z,2.4
2022-12-06T09:59:40.407Z,3.1
2022-12-06T10:01:42.486Z,2.8
2022-12-06T10:03:44.479Z,3.3
2022-12-06T10:09:50.613Z,2.8
2022-12-06T10:11:52.638Z,2.8
2022-12-06T10:16:00.050Z,1.6
2022-12-06T10:18:02.014Z,8.4
2022-12-06T10:26:40.292Z,3.3
2022-12-06T10:28:42.326Z,2.4
2022-12-06T10:30:44.395Z,2.6
2022-12-06T10:32:46.456Z,7.2
2022-12-06T10:34:49.478Z,2.8
2022-12-06T10:36:50.595Z,5.2
2022-12-06T10:38:52.694Z,3.9
2022-12-06T10:43:00.105Z,2.3
2022-12-06T10:45:02.158Z,2
2022-12-06T10:47:04.363Z,1.6
2022-12-06T10:53:10.449Z,2.6
2022-12-06T10:59:19.954Z,4.8
2022-12-06T11:01:22.056Z,3.1
2022-12-06T11:14:40.391Z,2.7
2022-12-06T11:16:42.643Z,2.3
2022-12-06T11:18:44.564Z,1.9
2022-12-06T11:20:46.707Z,2.2
2022-12-06T11:22:51.990Z,1.9
2022-12-06T11:24:54.074Z,4.1
2022-12-06T11:26:56.183Z,1.4
2022-12-06T11:28:58.259Z,2.6
2022-12-06T11:31:00.374Z,2.5
2022-12-06T11:33:02.447Z,2.5
2022-12-06T11:37:09.859Z,2.8
2022-12-06T11:39:11.954Z,2.9
2022-12-06T11:41:14.003Z,2.5
2022-12-06T11:43:16.107Z,2.2
2022-12-06T11:45:18.200Z,1.7
2022-12-06T11:47:20.303Z,2.1
2022-12-06T11:49:22.361Z,1.8
2022-12-06T11:51:27.676Z,2.1
2022-12-06T11:53:29.776Z,2.2
2022-12-06T11:55:31.868Z,1.9
2022-12-06T11:57:33.945Z,1.7
2022-12-06T11:59:36.021Z,1.6
2022-12-06T12:03:40.221Z,1.7
2022-12-06T12:09:49.674Z,2
2022-12-06T12:10:52.315Z,2.2
2022-12-06T12:12:54.397Z,1.7
2022-12-06T12:14:56.499Z,2.2
2022-12-06T12:16:58.646Z,1.9
2022-12-06T12:19:03.904Z,2.6
2022-12-06T12:21:05.989Z,2.4
2022-12-06T12:23:08.090Z,2.6
2022-12-06T12:25:18.962Z,2.7
2022-12-06T12:27:16.824Z,2
2022-12-06T12:29:14.404Z,2.8
2022-12-06T12:31:16.492Z,2.2
2022-12-06T12:33:21.829Z,1.3
2022-12-06T12:35:23.908Z,1.2
2022-12-06T12:41:30.193Z,2.3
2022-12-06T12:47:39.736Z,1.4
2022-12-06T12:53:47.558Z,2
2022-12-06T12:55:49.641Z,1.8
2022-12-06T12:59:53.823Z,2.4
2022-12-06T13:06:03.446Z,2
2022-12-06T13:07:06.099Z,2.8
2022-12-06T13:09:08.198Z,2
2022-12-06T13:11:10.261Z,2.7
2022-12-06T13:13:12.387Z,2.6
2022-12-06T13:15:17.714Z,1.9
2022-12-06T13:17:19.837Z,2.6
2022-12-06T13:19:21.907Z,1.9
2022-12-06T13:21:23.989Z,2.8
2022-12-06T13:23:26.092Z,2.4
2022-12-06T13:25:28.171Z,2.6
2022-12-06T13:27:30.272Z,2.5
2022-12-06T13:29:35.590Z,3
2022-12-06T13:31:37.665Z,3.3
2022-12-06T13:33:39.783Z,2.4
2022-12-06T13:35:41.865Z,2.4
2022-12-06T13:37:43.943Z,3.5
2022-12-06T13:43:53.455Z,2.6
2022-12-06T13:45:55.724Z,2.6
2022-12-06T13:47:57.602Z,3.1
2022-12-06T13:49:59.715Z,2.7
2022-12-06T13:52:01.766Z,3.3
2022-12-06T13:54:03.885Z,2.1
2022-12-06T13:56:05.965Z,3.7
2022-12-06T13:58:11.274Z,3.5
2022-12-06T14:00:13.361Z,2.8
2022-12-06T14:02:15.466Z,3.5
2022-12-06T14:04:44.324Z,2
2022-12-06T14:06:46.382Z,2.9
2022-12-06T14:08:48.479Z,3
2022-12-06T14:10:53.777Z,3
2022-12-06T14:12:55.876Z,2.9
2022-12-06T14:14:57.978Z,3.4
2022-12-06T14:17:00.159Z,1.9
2022-12-06T14:19:02.153Z,3.1
2022-12-06T14:21:04.208Z,3.2
2022-12-06T14:23:06.301Z,3.5
2022-12-06T14:25:11.642Z,2.9
2022-12-06T14:27:13.700Z,3.8
2022-12-06T14:37:24.108Z,3.7
2022-12-06T14:41:31.538Z,4.2
2022-12-06T14:43:33.612Z,3.5
2022-12-06T14:45:35.716Z,3.9
2022-12-06T14:47:37.780Z,3.6
2022-12-06T14:51:41.940Z,3.7
2022-12-06T14:53:47.259Z,3.3
2022-12-06T14:55:49.316Z,3.4
2022-12-06T14:57:51.394Z,4.4
2022-12-06T14:58:54.055Z,4.6
2022-12-06T15:00:56.141Z,4.9
2022-12-06T15:02:58.345Z,4.2
2022-12-06T15:05:00.272Z,4.2
2022-12-06T15:07:05.579Z,3.5
2022-12-06T15:09:07.663Z,4.1
2022-12-06T15:11:09.742Z,3.5
2022-12-06T15:13:11.814Z,3.4
2022-12-06T15:15:13.890Z,3.5
2022-12-06T15:19:18.043Z,2.8
2022-12-06T15:21:23.354Z,3.4
2022-12-06T15:23:25.411Z,2.9
2022-12-06T15:25:27.463Z,4.1
2022-12-06T15:27:29.540Z,3.1
2022-12-06T15:29:31.631Z,4
2022-12-06T15:31:33.705Z,3.9
2022-12-06T15:33:35.736Z,4.4
2022-12-06T15:35:41.008Z,4.1
2022-12-06T15:37:48.776Z,4.2
2022-12-06T15:39:45.144Z,5.8
2022-12-06T15:47:53.388Z,3.7
2022-12-06T15:49:58.750Z,4.9
2022-12-06T15:55:05.449Z,4.3
2022-12-06T15:57:07.534Z,5.6
2022-12-06T15:59:09.591Z,6
2022-12-06T16:03:16.963Z,5.3
2022-12-06T16:05:19.014Z,4.3
2022-12-06T16:09:23.116Z,5.5
2022-12-06T16:11:25.202Z,5.5
2022-12-06T16:13:27.242Z,5.7
2022-12-06T16:15:29.302Z,4.8
2022-12-06T16:17:34.645Z,6
2022-12-06T16:19:36.681Z,5.6
2022-12-06T16:21:38.767Z,5.2
2022-12-06T16:24:12.044Z,4.2
2022-12-06T16:25:42.877Z,5.4
2022-12-06T16:27:44.957Z,5.2
2022-12-06T16:29:47.023Z,5.2
2022-12-06T16:44:04.698Z,6.7
2022-12-06T16:46:10.097Z,5.4
2022-12-06T16:48:12.061Z,5.5
2022-12-06T16:51:16.776Z,5.1
2022-12-06T16:53:18.832Z,5.4
2022-12-06T16:55:20.897Z,5.7
2022-12-06T16:57:22.958Z,6
2022-12-06T17:01:30.345Z,6.8
2022-12-06T17:03:32.380Z,5.7
2022-12-06T17:05:34.560Z,5.4
2022-12-06T17:07:36.562Z,4.8
2022-12-06T17:09:38.564Z,4.5
2022-12-06T17:11:40.632Z,7.6
2022-12-06T17:13:45.899Z,6.9
2022-12-06T17:15:48.056Z,5.7
2022-12-06T17:17:50.048Z,6.2
2022-12-06T17:19:52.078Z,6.6
2022-12-06T17:21:54.128Z,6.3
2022-12-06T17:23:56.193Z,5.8
2022-12-06T17:25:58.239Z,5.5
2022-12-06T17:28:03.524Z,7.7
2022-12-06T17:30:05.588Z,7
2022-12-06T17:32:07.649Z,6.1
2022-12-06T17:34:09.686Z,7.3
2022-12-06T17:36:11.728Z,7.1
2022-12-06T17:38:13.790Z,7.7
2022-12-06T17:40:15.838Z,8.3
2022-12-06T17:42:21.118Z,8.5
2022-12-06T17:44:23.155Z,8.2
2022-12-06T17:46:25.280Z,9.4
2022-12-06T17:48:54.058Z,9.3
2022-12-06T17:50:56.088Z,10.5
2022-12-06T17:52:58.119Z,7.9
2022-12-06T17:55:03.595Z,9.4
2022-12-06T17:57:05.455Z,10.2
2022-12-06T17:59:07.482Z,10.4
2022-12-06T18:01:09.566Z,9.8
2022-12-06T18:03:11.624Z,9.4
2022-12-06T18:05:13.611Z,11.2
2022-12-06T18:07:15.631Z,10.2
2022-12-06T18:09:20.877Z,11
2022-12-06T18:11:22.913Z,13.1
2022-12-06T18:13:24.955Z,11.7
2022-12-06T18:15:26.983Z,13.7
2022-12-06T18:17:29.013Z,12.7
2022-12-06T18:19:31.028Z,14.7
2022-12-06T18:21:33.090Z,15.1
2022-12-06T18:23:44.582Z,14.2
2022-12-06T18:25:40.355Z,13.9
2022-12-06T18:27:42.415Z,14.8
2022-12-06T18:29:44.388Z,15.7
2022-12-06T18:35:50.527Z,13.4
2022-12-06T18:42:01.387Z,16.3
2022-12-06T18:43:03.978Z,15.6
2022-12-06T18:45:06.017Z,14.5
2022-12-06T18:47:08.031Z,13
2022-12-06T18:49:10.091Z,13.1
2022-12-06T18:51:15.347Z,14.7
2022-12-06T18:53:17.381Z,15.7
2022-12-06T18:55:19.620Z,13.6
2022-12-06T18:57:21.435Z,13.9
2022-12-06T18:59:27.570Z,13.5
2022-12-06T19:01:25.631Z,13.1
2022-12-06T19:03:27.559Z,11.9
2022-12-06T19:05:54.012Z,12.3
2022-12-06T19:07:34.904Z,12.2
2022-12-06T19:09:36.865Z,11.1
2022-12-06T19:11:38.880Z,11.4
2022-12-06T19:13:40.939Z,13.2
2022-12-06T19:15:43.195Z,12.5
2022-12-06T19:17:44.958Z,14.3
2022-12-06T19:19:50.237Z,13.1
2022-12-06T19:21:52.293Z,14
2022-12-06T19:23:54.338Z,13.8
2022-12-06T19:25:56.576Z,13.6
2022-12-06T19:27:58.383Z,13
2022-12-06T19:30:00.431Z,12.9
2022-12-06T19:32:02.481Z,9.6
2022-12-06T19:34:07.694Z,13.4
2022-12-06T19:36:09.936Z,12.2
2022-12-06T19:38:11.760Z,13.1
2022-12-06T19:45:20.501Z,14.7
2022-12-06T19:51:29.834Z,14.3
2022-12-06T19:53:31.859Z,13.9
2022-12-06T20:03:45.251Z,11.8
2022-12-06T20:05:47.245Z,14.4
2022-12-06T20:07:49.354Z,12.8
2022-12-06T20:09:51.304Z,13.2
2022-12-06T20:11:53.371Z,13.4
2022-12-06T20:13:55.406Z,13
2022-12-06T20:16:00.764Z,14.6
2022-12-06T20:18:02.683Z,14.4
2022-12-06T20:20:04.845Z,14.3
2022-12-06T20:22:06.753Z,11.7
2022-12-06T20:24:08.791Z,13
2022-12-06T20:26:10.788Z,13.7
2022-12-06T20:28:13.829Z,15.1
2022-12-06T20:30:18.075Z,13.4
2022-12-06T20:32:20.140Z,14.9
2022-12-06T20:41:30.872Z,15
2022-12-06T20:43:36.132Z,13.9
2022-12-06T20:47:40.195Z,13.6
2022-12-06T20:49:42.234Z,14.3
2022-12-06T20:51:49.525Z,13.8
2022-12-06T20:53:46.281Z,13.6
2022-12-06T20:55:48.330Z,13.9
2022-12-06T20:57:53.566Z,12.9
2022-12-06T21:03:59.691Z,13.1
2022-12-06T21:08:03.815Z,14.5
2022-12-06T21:10:05.736Z,13.3
2022-12-06T21:12:11.009Z,14.3
2022-12-06T21:14:13.033Z,13.8
2022-12-06T21:16:15.164Z,13.5
2022-12-06T21:18:19.812Z,14.7
2022-12-06T21:20:19.122Z,14.4
2022-12-06T21:22:21.143Z,14.8
2022-12-06T21:24:23.150Z,13
2022-12-06T21:26:28.421Z,12.9
2022-12-06T21:28:30.427Z,14.3
2022-12-06T21:30:32.483Z,12.7
2022-12-06T21:33:01.310Z,13.7
2022-12-06T21:35:03.336Z,14.1
2022-12-06T21:39:10.663Z,14.3
2022-12-06T21:41:12.728Z,14
2022-12-06T21:43:14.742Z,12.4
2022-12-06T21:45:16.765Z,11.6
2022-12-06T21:47:18.807Z,12.1
2022-12-06T21:51:22.870Z,12.6
2022-12-06T21:53:28.123Z,11.9
2022-12-06T21:55:30.137Z,13.1
2022-12-06T21:57:32.204Z,11.7
2022-12-06T21:59:34.215Z,11.6
2022-12-06T22:01:36.283Z,12
2022-12-06T22:03:38.289Z,11.8
2022-12-06T22:05:40.319Z,11.4
2022-12-06T22:07:45.653Z,12.2
2022-12-06T22:11:49.632Z,10.8
2022-12-06T22:13:51.642Z,12.6
2022-12-06T22:15:53.774Z,12.1
2022-12-06T22:17:55.696Z,11.2
2022-12-06T22:19:57.720Z,11.6
2022-12-06T22:22:02.979Z,12.2
2022-12-06T22:24:04.987Z,13.1
2022-12-06T22:26:07.017Z,12.1
2022-12-06T22:27:09.637Z,12.4
2022-12-06T22:29:11.677Z,12.9
2022-12-06T22:31:13.745Z,15.2
2022-12-06T22:33:15.673Z,13
2022-12-06T22:35:20.918Z,12.9
2022-12-06T22:37:28.349Z,14.7
2022-12-06T22:45:30.968Z,13.1
2022-12-06T22:51:40.197Z,12.5
2022-12-06T22:55:44.210Z,12.6
2022-12-06T22:57:46.206Z,11.2
2022-12-06T22:59:48.208Z,11.9
2022-12-06T23:01:50.239Z,10.2
2022-12-06T23:03:55.605Z,10.2
2022-12-06T23:05:57.451Z,9.5
2022-12-06T23:07:59.484Z,8.8
2022-12-06T23:10:01.687Z,8.4
2022-12-06T23:12:03.439Z,7.3
2022-12-06T23:14:05.442Z,6.3
2022-12-06T23:16:07.554Z,6.6
2022-12-06T23:18:12.682Z,5.4
2022-12-06T23:20:14.668Z,5.7
2022-12-06T23:25:21.296Z,4.5
2022-12-06T23:31:30.676Z,4.4
2022-12-06T23:35:34.546Z,4.6
2022-12-06T23:41:40.566Z,3.7
2022-12-06T23:43:42.604Z,4.2
2022-12-06T23:45:47.897Z,4.5
2022-12-06T23:47:49.849Z,3.3
2022-12-06T23:49:51.853Z,4.2
2022-12-06T23:51:53.860Z,2.9
2022-12-06T23:53:55.894Z,2.8
2022-12-06T23:55:57.881Z,3.6
2022-12-06T23:57:59.862Z,3
